Accueil
METAR-TAF:

METAR-TAF

Aéroports :

Aéroport de Madrid-Cuatro Vientos

Madrid-Cuatro Vientos, Espagne

latitude: 40-23N, longitude: 003-47W, altitude: 690 m

Observation

Le bulletin a été fait il y a 39 minutes, à 15:00 UTC
Vent 3 kt de direction variable
Température 17°C
Humidité 29%
Pression 1020 hPa
Visibilité 10 km ou plus
pas de nuages en-dessous de 1500 mètres et pas de cumulonimbus.

METAR: LEVS 011500Z VRB03KT CAVOK 17/M01 Q1020

Heure: 16:39 (15:39 UTC)

Prévision

Le bulletin a été fait il y a 4 heures et 39 minutes, à 11:00 UTC
Prévision valable du 01 à 12 UTC au 02 à 12 UTC
Vent 3 kt de direction variable
Visibilité 10 km ou plus
pas de nuages en-dessous de 1500 mètres et pas de cumulonimbus.
Evoluant progressivement
du 02 à 11 UTC au 02 à 12 UTC
Vent 10 kt de nord/nord-est

TAF: LEVS 011100Z 0112/0212 VRB03KT CAVOK TX16/0115Z TN04/0207Z BECMG 0211/0212 03010KT

Observations et prévisions météorologiques de plus de 4000 aéroports (messages METAR et TAF).

Les stations disponibles sont représentées par des disques jaunes et rouges sur la carte.

Passer la souris dessus pour voir le nom de la station.

Cliquer dessus pour voir les observations et prévisions météorologiques.

Pour changer de carte: cliquez sur les boutons verts avec une croix noire pour zoomer, sur le bouton vert avec un tiret pour effectuer un zoom arrière, ou sur les flèches vertes pour les cartes adjacentes.


METAR-TAF: